Time;durP1;ratioP1;P1;durP2;ratioP2;P2;SDS_P1;SDS_P2;PMS_P1;PMS_P2;Temp;Humidity;BMP_temperature;BMP_pressure;BME280_temperature;BME280_humidity;BME280_pressure;Samples;Min_cycle;Max_cycle;Signal;HPM_P1;HPM_P2
2022/10/26 00:00:35;;;;;;;7.53;6.83;;;;;;;6.51;100.00;97291.31;4962029;28;20712;-63
2022/10/26 00:03:03;;;;;;;19.97;7.80;;;;;;;6.47;100.00;97293.44;4962869;28;20197;-63
2022/10/26 00:05:33;;;;;;;7.07;6.60;;;;;;;6.47;100.00;97289.97;4961597;28;20217;-61
2022/10/26 00:08:01;;;;;;;28.10;9.43;;;;;;;6.55;100.00;97294.47;4962881;28;20237;-63
2022/10/26 00:10:30;;;;;;;19.47;7.70;;;;;;;6.53;100.00;97305.13;4962352;28;20213;-60
2022/10/26 00:13:00;;;;;;;12.27;6.73;;;;;;;6.45;100.00;97303.28;4963581;28;20205;-63
2022/10/26 00:15:29;;;;;;;7.07;6.27;;;;;;;6.49;100.00;97304.63;4962009;28;20223;-64
2022/10/26 00:17:58;;;;;;;10.57;6.97;;;;;;;6.55;100.00;97316.34;4963055;28;20232;-65
2022/10/26 00:20:26;;;;;;;20.60;6.97;;;;;;;6.58;100.00;97323.09;4960874;28;20217;-64
2022/10/26 00:22:54;;;;;;;19.40;8.80;;;;;;;6.58;100.00;97316.03;4963242;28;20201;-64
2022/10/26 00:25:22;;;;;;;5.83;4.73;;;;;;;6.57;100.00;97308.28;4959055;28;20201;-64
2022/10/26 00:27:51;;;;;;;34.13;7.50;;;;;;;6.49;100.00;97303.78;4961371;28;20224;-63
2022/10/26 00:30:21;;;;;;;12.90;6.10;;;;;;;6.48;100.00;97304.78;4962747;28;20650;-62
2022/10/26 00:32:49;;;;;;;9.50;6.30;;;;;;;6.39;100.00;97303.88;4961984;28;20229;-65
2022/10/26 00:35:18;;;;;;;6.87;5.17;;;;;;;6.33;100.00;97299.25;4960072;28;20811;-60
2022/10/26 00:37:56;;;;;;;11.03;6.57;;;;;;;6.19;100.00;97288.31;4961360;28;20371;-63
2022/10/26 00:40:28;;;;;;;5.77;5.33;;;;;;;6.27;100.00;97297.25;4962239;28;20445;-65
2022/10/26 00:42:56;;;;;;;7.17;6.07;;;;;;;6.23;100.00;97294.91;4959996;28;20482;-64
2022/10/26 00:45:28;;;;;;;6.80;5.50;;;;;;;6.21;100.00;97296.88;4961009;28;20328;-63
2022/10/26 00:47:58;;;;;;;13.80;6.90;;;;;;;6.20;100.00;97299.66;4962471;28;20377;-61
2022/10/26 00:50:30;;;;;;;5.23;4.73;;;;;;;6.16;100.00;97293.03;4960433;28;20338;-63
2022/10/26 00:53:02;;;;;;;6.33;4.77;;;;;;;6.11;100.00;97292.69;4961848;28;20784;-64
2022/10/26 00:55:33;;;;;;;4.97;4.67;;;;;;;6.12;100.00;97294.34;4959543;28;20628;-63
2022/10/26 00:58:02;;;;;;;5.10;4.80;;;;;;;6.12;100.00;97291.69;4962458;28;20325;-64
2022/10/26 01:00:32;;;;;;;5.90;5.40;;;;;;;6.11;100.00;97290.03;4962117;28;20213;-62
2022/10/26 01:03:05;;;;;;;5.20;4.87;;;;;;;6.11;100.00;97285.63;4962155;28;20781;-64
2022/10/26 01:05:35;;;;;;;4.90;4.57;;;;;;;6.06;100.00;97280.81;4961373;28;20686;-62
2022/10/26 01:08:04;;;;;;;5.07;4.77;;;;;;;6.05;100.00;97275.69;4960962;28;20229;-64
2022/10/26 01:10:33;;;;;;;5.20;4.80;;;;;;;6.09;100.00;97266.53;4959826;28;20760;-63
2022/10/26 01:13:02;;;;;;;5.17;4.77;;;;;;;6.06;100.00;97264.19;4961480;28;20312;-62
2022/10/26 01:15:38;;;;;;;8.53;7.73;;;;;;;6.12;100.00;97263.59;4960412;28;20700;-64
2022/10/26 01:18:11;;;;;;;23.93;9.10;;;;;;;6.16;100.00;97267.56;4961690;28;21061;-62
2022/10/26 01:21:12;;;;;;;7.50;6.90;;;;;;;6.15;100.00;97263.28;4961518;28;20319;-62
2022/10/26 01:23:57;;;;;;;4.90;4.60;;;;;;;6.23;100.00;97259.88;4961722;28;21224;-59
2022/10/26 01:26:39;;;;;;;4.20;4.00;;;;;;;6.30;100.00;97254.81;4960525;28;20209;-63
2022/10/26 01:29:20;;;;;;;4.40;4.10;;;;;;;6.33;100.00;97244.81;4962103;28;20803;-62
2022/10/26 01:31:55;;;;;;;4.40;4.20;;;;;;;6.40;100.00;97247.63;4961765;28;20775;-64
2022/10/26 01:34:29;;;;;;;3.70;3.60;;;;;;;6.39;100.00;97248.63;4961561;28;20821;-63
2022/10/26 01:37:00;;;;;;;4.03;3.83;;;;;;;6.45;100.00;97255.06;4960330;28;20744;-63
2022/10/26 01:39:32;;;;;;;4.03;3.83;;;;;;;6.43;100.00;97252.59;4960555;28;20701;-64
2022/10/26 01:42:01;;;;;;;3.93;3.73;;;;;;;6.44;100.00;97259.53;4962798;28;20237;-64
2022/10/26 01:44:35;;;;;;;3.73;3.53;;;;;;;6.47;100.00;97253.94;4959902;28;20219;-63
2022/10/26 01:47:05;;;;;;;5.13;4.30;;;;;;;6.44;100.00;97262.16;4961822;28;20237;-60
2022/10/26 01:49:36;;;;;;;4.77;4.47;;;;;;;6.48;100.00;97257.41;4959977;28;20209;-60
2022/10/26 01:52:05;;;;;;;4.70;4.30;;;;;;;6.55;100.00;97265.50;4960955;28;20204;-63
2022/10/26 01:54:35;;;;;;;5.33;4.87;;;;;;;6.52;100.00;97258.72;4959631;28;20780;-62
2022/10/26 01:57:05;;;;;;;5.83;5.33;;;;;;;6.51;100.00;97239.50;4960784;28;20313;-63
2022/10/26 01:59:44;;;;;;;5.10;4.80;;;;;;;6.62;100.00;97243.63;4959792;28;20254;-65
2022/10/26 02:02:30;;;;;;;6.73;4.70;;;;;;;6.59;100.00;97235.25;4961881;28;20725;-62
2022/10/26 02:05:16;;;;;;;5.10;4.60;;;;;;;6.60;100.00;97232.44;4957715;28;20629;-63
2022/10/26 02:07:51;;;;;;;4.80;4.50;;;;;;;6.48;100.00;97228.44;4960479;28;20232;-62
2022/10/26 02:10:28;;;;;;;5.17;4.70;;;;;;;6.53;100.00;97230.63;4960954;28;20648;-62
2022/10/26 02:13:02;;;;;;;5.63;5.07;;;;;;;6.52;100.00;97229.78;4961254;28;20420;-62
2022/10/26 02:15:34;;;;;;;4.90;4.50;;;;;;;6.55;100.00;97228.66;4959850;28;20610;-62
2022/10/26 02:18:12;;;;;;;5.13;4.63;;;;;;;6.54;100.00;97234.91;4964602;28;20240;-63
2022/10/26 02:20:44;;;;;;;5.17;4.70;;;;;;;6.59;100.00;97227.34;4960705;28;20603;-63
2022/10/26 02:23:13;;;;;;;5.50;5.10;;;;;;;6.56;100.00;97235.56;4960147;28;20204;-62
2022/10/26 02:25:45;;;;;;;5.10;4.73;;;;;;;6.62;100.00;97225.22;4961835;28;20197;-65
2022/10/26 02:28:17;;;;;;;6.20;4.73;;;;;;;6.65;100.00;97224.06;4959796;28;20726;-64
2022/10/26 02:30:47;;;;;;;7.20;5.13;;;;;;;6.61;100.00;97220.94;4961090;28;20228;-64
2022/10/26 02:33:20;;;;;;;4.70;4.40;;;;;;;6.60;100.00;97210.56;4961270;28;20217;-61
2022/10/26 02:35:51;;;;;;;4.77;4.37;;;;;;;6.66;100.00;97218.66;4959846;28;20223;-61
2022/10/26 02:38:20;;;;;;;4.83;4.53;;;;;;;6.65;100.00;97217.03;4959562;28;20316;-65
2022/10/26 02:40:50;;;;;;;4.60;4.40;;;;;;;6.72;100.00;97245.34;4960242;28;20728;-62
2022/10/26 02:43:21;;;;;;;4.40;4.10;;;;;;;6.57;100.00;97263.53;4959994;28;20605;-63
2022/10/26 02:45:53;;;;;;;4.20;4.00;;;;;;;6.56;100.00;97256.63;4959318;28;20220;-60
2022/10/26 02:48:24;;;;;;;4.53;4.23;;;;;;;6.64;100.00;97251.41;4961288;28;20333;-58
2022/10/26 02:50:59;;;;;;;4.60;4.20;;;;;;;6.68;100.00;97249.28;4960416;28;20236;-61
2022/10/26 02:53:31;;;;;;;4.83;4.23;;;;;;;6.68;100.00;97244.81;4960809;28;20223;-62
2022/10/26 02:56:04;;;;;;;4.40;4.20;;;;;;;6.79;100.00;97247.16;4954792;28;20578;-60
2022/10/26 02:58:38;;;;;;;4.77;4.47;;;;;;;6.84;100.00;97254.59;4960761;28;20588;-63
2022/10/26 03:01:07;;;;;;;5.20;4.90;;;;;;;6.81;100.00;97249.66;4964346;28;20929;-62
2022/10/26 03:03:37;;;;;;;5.43;5.03;;;;;;;6.76;100.00;97252.75;4963170;28;20259;-62
2022/10/26 03:06:06;;;;;;;5.67;5.27;;;;;;;6.66;100.00;97234.47;4963617;28;20236;-59
2022/10/26 03:08:34;;;;;;;5.63;5.20;;;;;;;6.74;100.00;97228.38;4967192;28;20213;-59
2022/10/26 03:11:02;;;;;;;4.90;4.50;;;;;;;6.68;100.00;97223.75;4963235;28;20582;-58
2022/10/26 03:13:31;;;;;;;7.00;4.67;;;;;;;6.61;100.00;97217.47;4965431;28;20307;-57
2022/10/26 03:15:59;;;;;;;5.90;4.83;;;;;;;6.62;100.00;97206.78;4964933;28;20600;-55
2022/10/26 03:18:27;;;;;;;5.37;4.97;;;;;;;6.70;100.00;97213.91;4965035;28;20514;-62
2022/10/26 03:20:57;;;;;;;5.30;4.80;;;;;;;6.72;100.00;97211.13;4961905;28;20197;-63
2022/10/26 03:23:25;;;;;;;5.30;4.90;;;;;;;6.68;100.00;97207.16;4963018;28;20715;-63
2022/10/26 03:25:56;;;;;;;5.17;4.60;;;;;;;6.72;100.00;97200.59;4961879;28;20489;-62
2022/10/26 03:28:25;;;;;;;5.07;4.77;;;;;;;6.73;100.00;97204.88;4963498;28;20231;-63
2022/10/26 03:30:53;;;;;;;5.37;4.63;;;;;;;6.83;100.00;97225.81;4962468;28;20209;-63
2022/10/26 03:33:21;;;;;;;5.50;5.10;;;;;;;6.93;100.00;97231.78;4963030;28;20213;-63
2022/10/26 03:35:56;;;;;;;5.23;4.93;;;;;;;6.97;100.00;97242.78;4964126;28;20216;-61
2022/10/26 03:38:25;;;;;;;5.73;5.33;;;;;;;7.00;100.00;97227.50;4962221;28;20855;-65
2022/10/26 03:40:53;;;;;;;5.20;4.70;;;;;;;7.07;100.00;97230.34;4962344;28;20216;-63
2022/10/26 03:43:21;;;;;;;5.13;4.73;;;;;;;7.05;100.00;97234.94;4962845;28;20217;-63
2022/10/26 03:45:50;;;;;;;4.80;4.50;;;;;;;7.07;100.00;97238.22;4962337;28;20755;-63
2022/10/26 03:48:18;;;;;;;5.20;4.80;;;;;;;7.18;100.00;97245.00;4961793;28;20678;-64
2022/10/26 03:50:46;;;;;;;4.53;4.17;;;;;;;7.17;100.00;97233.63;4962812;28;20209;-64
2022/10/26 03:53:16;;;;;;;5.27;4.77;;;;;;;7.29;100.00;97233.31;4960756;28;20420;-64
2022/10/26 03:55:44;;;;;;;5.07;4.67;;;;;;;7.33;100.00;97239.91;4962460;28;20223;-62
2022/10/26 03:58:12;;;;;;;4.63;4.33;;;;;;;7.23;100.00;97246.16;4962191;28;20787;-62
2022/10/26 04:00:41;;;;;;;5.67;5.27;;;;;;;7.25;100.00;97243.38;4963277;28;20702;-66
2022/10/26 04:03:09;;;;;;;6.23;4.70;;;;;;;7.29;100.00;97249.16;4961719;28;20201;-64
2022/10/26 04:05:37;;;;;;;4.80;4.47;;;;;;;7.22;100.00;97236.63;4962478;28;20214;-62
2022/10/26 04:08:06;;;;;;;4.67;4.37;;;;;;;7.24;100.00;97234.63;4962352;28;20457;-63
2022/10/26 04:10:35;;;;;;;4.80;4.33;;;;;;;7.29;100.00;97235.97;4962362;28;20443;-60
2022/10/26 04:13:03;;;;;;;4.80;4.40;;;;;;;7.35;100.00;97237.94;4961811;28;20209;-64
2022/10/26 04:15:32;;;;;;;4.87;4.50;;;;;;;7.33;100.00;97239.91;4964568;28;20792;-63
2022/10/26 04:18:01;;;;;;;5.70;4.87;;;;;;;7.33;100.00;97239.91;4963894;28;20977;-62
2022/10/26 04:20:31;;;;;;;4.80;4.43;;;;;;;7.34;100.00;97238.94;4963344;28;20232;-64
2022/10/26 04:23:00;;;;;;;4.27;4.07;;;;;;;7.30;100.00;97245.53;4962865;28;20201;-58
2022/10/26 04:25:28;;;;;;;4.87;4.53;;;;;;;7.28;100.00;97250.97;4962173;28;20728;-59
2022/10/26 04:28:02;;;;;;;4.73;4.33;;;;;;;7.30;100.00;97245.53;4965691;28;20221;-59
2022/10/26 04:30:30;;;;;;;4.67;4.37;;;;;;;7.38;100.00;97253.44;4964397;28;20217;-58
2022/10/26 04:32:58;;;;;;;6.10;4.87;;;;;;;7.38;100.00;97258.72;4966409;28;20202;-60
2022/10/26 04:35:27;;;;;;;5.90;5.40;;;;;;;7.34;100.00;97255.59;4964538;28;20255;-59
2022/10/26 04:37:58;;;;;;;5.77;4.70;;;;;;;7.36;100.00;97255.41;4966017;28;20733;-58
2022/10/26 04:40:28;;;;;;;4.90;4.23;;;;;;;7.40;100.00;97248.84;4961311;28;20369;-64
2022/10/26 04:42:56;;;;;;;5.30;4.80;;;;;;;7.37;100.00;97254.44;4959378;28;20756;-65
2022/10/26 04:45:27;;;;;;;4.57;4.27;;;;;;;7.44;100.00;97258.09;4960526;28;20208;-65
2022/10/26 04:48:03;;;;;;;5.20;4.80;;;;;;;7.37;100.00;97255.25;4963801;28;20707;-64
2022/10/26 04:50:31;;;;;;;4.87;4.50;;;;;;;7.44;100.00;97265.16;4963648;28;21626;-65
2022/10/26 04:53:00;;;;;;;5.73;5.23;;;;;;;7.39;100.00;97257.75;4962292;28;20564;-63
2022/10/26 04:55:28;;;;;;;4.93;4.30;;;;;;;7.44;100.00;97259.88;4961353;28;20797;-64
2022/10/26 04:57:56;;;;;;;5.17;4.87;;;;;;;7.43;100.00;97256.44;4962641;28;20299;-64
2022/10/26 05:00:31;;;;;;;5.20;4.80;;;;;;;7.47;100.00;97255.13;4961198;28;20664;-63
2022/10/26 05:03:00;;;;;;;4.73;4.47;;;;;;;7.41;100.00;97262.84;4960818;28;20205;-62
2022/10/26 05:05:28;;;;;;;4.37;4.07;;;;;;;7.43;100.00;97260.88;4960440;28;20205;-63
2022/10/26 05:07:57;;;;;;;5.93;5.53;;;;;;;7.47;100.00;97264.84;4961099;28;20638;-63
2022/10/26 05:10:26;;;;;;;5.20;4.70;;;;;;;7.50;100.00;97267.97;4960046;28;20918;-65
2022/10/26 05:12:55;;;;;;;5.17;4.77;;;;;;;7.51;100.00;97268.78;4953739;28;20223;-64
2022/10/26 05:15:24;;;;;;;4.90;4.60;;;;;;;7.46;100.00;97271.09;4961047;28;20213;-64
2022/10/26 05:17:57;;;;;;;4.87;4.57;;;;;;;7.50;100.00;97270.63;4953444;28;20554;-63
2022/10/26 05:20:28;;;;;;;5.93;5.53;;;;;;;7.56;100.00;97276.22;4959288;28;20941;-65
2022/10/26 05:22:57;;;;;;;4.63;4.23;;;;;;;7.55;100.00;97275.38;4962759;28;20217;-63
2022/10/26 05:25:25;;;;;;;5.07;4.70;;;;;;;7.57;100.00;97273.41;4961992;28;20657;-63
2022/10/26 05:27:57;;;;;;;5.00;4.70;;;;;;;7.61;100.00;97273.91;4961417;28;20240;-64
2022/10/26 05:30:26;;;;;;;4.77;4.37;;;;;;;7.66;100.00;97274.25;4960015;28;21245;-61
2022/10/26 05:32:56;;;;;;;4.63;4.43;;;;;;;7.71;100.00;97279.84;4961638;28;20209;-65
2022/10/26 05:35:25;;;;;;;5.00;4.60;;;;;;;7.69;100.00;97289.75;4960379;28;20204;-65
2022/10/26 05:37:53;;;;;;;5.70;5.20;;;;;;;7.68;100.00;97283.66;4952905;28;20221;-64
2022/10/26 05:40:22;;;;;;;5.63;5.23;;;;;;;7.67;100.00;97284.66;4960361;28;20244;-64
2022/10/26 05:42:50;;;;;;;6.07;5.57;;;;;;;7.77;100.00;97291.56;4960971;28;20434;-64
2022/10/26 05:45:19;;;;;;;7.70;5.87;;;;;;;7.77;100.00;97297.69;4960441;28;20456;-63
2022/10/26 05:47:47;;;;;;;6.40;5.90;;;;;;;7.66;100.00;97288.28;4961108;28;20514;-64
2022/10/26 05:50:18;;;;;;;6.43;6.03;;;;;;;7.82;100.00;97292.75;4960278;28;20622;-64
2022/10/26 05:52:47;;;;;;;6.57;5.97;;;;;;;7.90;100.00;97291.91;4961107;28;20315;-63
2022/10/26 05:55:17;;;;;;;10.43;9.53;;;;;;;7.88;100.00;97303.63;4960225;28;20229;-64
2022/10/26 05:57:46;;;;;;;5.53;5.13;;;;;;;7.91;100.00;97303.31;4964921;28;20814;-63
2022/10/26 06:00:19;;;;;;;5.67;5.10;;;;;;;7.94;100.00;97302.97;4964693;28;21630;-64
2022/10/26 06:02:57;;;;;;;5.80;5.30;;;;;;;8.01;100.00;97324.25;4961530;28;20494;-64
2022/10/26 06:05:28;;;;;;;5.43;5.07;;;;;;;7.94;100.00;97324.06;4960250;28;20216;-64
2022/10/26 06:07:57;;;;;;;5.03;4.73;;;;;;;7.95;100.00;97326.56;4961329;28;21092;-65
2022/10/26 06:10:26;;;;;;;6.03;5.60;;;;;;;7.99;100.00;97332.31;4994660;28;20261;-64
2022/10/26 06:12:55;;;;;;;6.47;6.07;;;;;;;7.96;100.00;97344.03;4960026;28;20209;-65
2022/10/26 06:15:24;;;;;;;6.13;5.63;;;;;;;8.03;100.00;97348.66;4962025;28;20331;-64
2022/10/26 06:17:59;;;;;;;7.70;5.83;;;;;;;8.03;100.00;97352.13;4951824;28;20685;-64
2022/10/26 06:20:38;;;;;;;6.03;4.73;;;;;;;8.05;100.00;97352.78;4959395;28;20860;-64
2022/10/26 06:23:20;;;;;;;5.13;4.63;;;;;;;8.07;100.00;97357.91;4960689;28;20208;-65
2022/10/26 06:25:55;;;;;;;5.37;5.07;;;;;;;8.10;100.00;97358.38;4961341;28;20406;-60
2022/10/26 06:28:30;;;;;;;5.83;5.43;;;;;;;8.20;100.00;97365.34;4959788;28;20240;-65
2022/10/26 06:30:59;;;;;;;6.37;5.77;;;;;;;8.31;100.00;97362.34;4988986;28;20226;-65
2022/10/26 06:33:28;;;;;;;5.87;5.47;;;;;;;8.24;100.00;97364.00;4962162;28;20692;-63
2022/10/26 06:36:07;;;;;;;6.17;5.77;;;;;;;8.33;100.00;97360.38;4962554;28;20310;-65
2022/10/26 06:38:37;;;;;;;5.77;5.37;;;;;;;8.35;100.00;97341.75;4961450;28;20242;-65
2022/10/26 06:41:06;;;;;;;6.40;5.90;;;;;;;8.31;100.00;97335.97;4963717;28;20229;-65
2022/10/26 06:43:35;;;;;;;6.80;6.40;;;;;;;8.42;100.00;97331.31;4963225;28;20217;-65
2022/10/26 06:46:13;;;;;;;8.17;7.40;;;;;;;8.47;100.00;97344.84;4965201;28;20213;-65
2022/10/26 06:48:48;;;;;;;7.80;7.20;;;;;;;8.40;100.00;97350.81;4964424;28;20377;-62
2022/10/26 06:51:18;;;;;;;6.67;6.17;;;;;;;8.51;100.00;97356.75;4964395;28;20213;-65
2022/10/26 06:53:52;;;;;;;9.07;8.40;;;;;;;8.53;100.00;97345.03;4964396;28;20684;-65
2022/10/26 06:56:20;;;;;;;9.10;8.30;;;;;;;8.62;100.00;97345.88;4963403;28;20536;-64
2022/10/26 06:58:49;;;;;;;12.47;10.90;;;;;;;8.69;100.00;97344.19;4964251;28;20258;-64
2022/10/26 07:01:18;;;;;;;10.77;9.87;;;;;;;8.90;100.00;97340.22;4964028;28;20233;-65
2022/10/26 07:03:46;;;;;;;10.57;9.57;;;;;;;9.04;100.00;97337.84;4964106;28;21982;-64
2022/10/26 07:06:15;;;;;;;13.07;9.67;;;;;;;9.18;100.00;97338.97;4962797;28;20256;-66
2022/10/26 07:08:45;;;;;;;10.73;9.73;;;;;;;9.12;100.00;97330.72;4964156;28;20340;-63
2022/10/26 07:11:13;;;;;;;10.87;8.57;;;;;;;9.29;100.00;97341.22;4963125;28;20518;-64
2022/10/26 07:13:41;;;;;;;9.30;8.40;;;;;;;9.35;100.00;97345.00;4962807;28;20340;-61
2022/10/26 07:16:09;;;;;;;10.87;8.80;;;;;;;9.41;100.00;97344.31;4961975;28;20205;-64
2022/10/26 07:18:38;;;;;;;29.27;25.87;;;;;;;9.47;100.00;97329.56;4963784;28;20682;-64
2022/10/26 07:21:06;;;;;;;32.73;28.10;;;;;;;9.50;100.00;97343.25;4963060;28;20525;-64
2022/10/26 07:23:34;;;;;;;13.50;12.30;;;;;;;9.53;100.00;97328.88;4963572;28;20675;-64
2022/10/26 07:26:04;;;;;;;10.27;9.37;;;;;;;9.53;100.00;97315.66;4962683;28;20209;-63
2022/10/26 07:28:32;;;;;;;11.00;9.87;;;;;;;9.47;100.00;97321.63;4965212;28;20269;-64
2022/10/26 07:31:00;;;;;;;10.43;9.43;;;;;;;9.49;100.00;97322.28;4962984;28;20550;-62
2022/10/26 07:33:28;;;;;;;10.23;9.33;;;;;;;9.55;100.00;97342.75;4963338;28;20743;-63
2022/10/26 07:35:59;;;;;;;11.63;10.57;;;;;;;9.80;100.00;97348.72;4961203;28;20686;-60
2022/10/26 07:38:27;;;;;;;11.67;10.47;;;;;;;10.45;100.00;97363.53;4963319;28;20862;-62
2022/10/26 07:40:55;;;;;;;12.80;11.53;;;;;;;10.67;100.00;97367.94;4955517;28;20313;-62
2022/10/26 07:43:25;;;;;;;11.53;10.53;;;;;;;11.05;100.00;97367.09;4961604;28;21564;-64
2022/10/26 07:45:53;;;;;;;13.07;9.97;;;;;;;11.26;100.00;97371.66;4961222;28;20785;-64
2022/10/26 07:48:21;;;;;;;10.90;9.87;;;;;;;11.44;100.00;97368.63;4963314;28;20421;-63
2022/10/26 07:50:49;;;;;;;10.23;9.33;;;;;;;11.51;100.00;97357.28;4963230;28;20735;-62
2022/10/26 07:53:18;;;;;;;10.33;9.43;;;;;;;11.85;100.00;97361.94;4962342;28;20251;-64
2022/10/26 07:55:54;;;;;;;8.90;7.97;;;;;;;11.98;100.00;97358.59;4963756;28;20408;-64
2022/10/26 07:58:25;;;;;;;9.50;8.43;;;;;;;11.92;100.00;97390.38;4961919;28;20232;-64
2022/10/26 08:00:54;;;;;;;8.70;8.07;;;;;;;12.10;100.00;97393.50;4956209;28;20761;-61
2022/10/26 08:03:22;;;;;;;8.87;7.60;;;;;;;12.10;100.00;97397.97;4962637;28;20324;-63
2022/10/26 08:05:54;;;;;;;10.17;8.30;;;;;;;11.60;100.00;97387.19;4963547;28;20209;-61
2022/10/26 08:08:23;;;;;;;8.70;7.80;;;;;;;11.60;100.00;97376.56;4961802;28;20549;-60
2022/10/26 08:10:51;;;;;;;9.90;8.60;;;;;;;11.84;100.00;97380.72;4963795;28;21621;-63
2022/10/26 08:13:19;;;;;;;9.70;8.70;;;;;;;11.99;100.00;97364.75;4961837;28;20205;-61
2022/10/26 08:15:49;;;;;;;8.90;7.97;;;;;;;12.18;100.00;97368.66;4962578;28;20205;-63
2022/10/26 08:18:18;;;;;;;8.63;7.93;;;;;;;12.45;100.00;97367.03;4962597;28;20665;-64
2022/10/26 08:20:46;;;;;;;8.07;7.47;;;;;;;12.38;100.00;97355.53;4963362;28;20217;-64
2022/10/26 08:23:14;;;;;;;8.43;7.83;;;;;;;12.32;100.00;97351.00;4961139;28;20269;-65
2022/10/26 08:25:42;;;;;;;8.83;8.03;;;;;;;12.57;100.00;97356.72;4961139;28;20209;-65
2022/10/26 08:28:10;;;;;;;8.27;7.63;;;;;;;12.46;100.00;97362.53;4960649;28;20225;-66
2022/10/26 08:30:39;;;;;;;7.33;6.73;;;;;;;12.24;100.00;97367.88;4961313;28;21313;-65
2022/10/26 08:33:10;;;;;;;17.73;15.83;;;;;;;12.27;100.00;97374.63;4962118;28;20367;-64
2022/10/26 08:35:38;;;;;;;9.20;7.63;;;;;;;12.33;100.00;97370.41;4961089;28;20680;-63
2022/10/26 08:38:06;;;;;;;8.17;7.37;;;;;;;12.53;100.00;97366.09;4960202;28;20412;-64
2022/10/26 08:40:38;;;;;;;7.70;6.90;;;;;;;12.48;100.00;97359.69;4961965;28;20213;-66
2022/10/26 08:43:13;;;;;;;6.80;6.30;;;;;;;12.61;100.00;97367.78;4960621;28;20240;-63
2022/10/26 08:45:46;;;;;;;7.83;6.97;;;;;;;12.75;100.00;97363.38;4962887;28;20731;-66
2022/10/26 08:48:18;;;;;;;7.77;7.27;;;;;;;12.74;100.00;97367.06;4961796;28;21207;-66
2022/10/26 08:50:51;;;;;;;7.07;6.47;;;;;;;12.79;100.00;97369.97;4961324;28;21068;-62
2022/10/26 08:53:22;;;;;;;7.20;6.60;;;;;;;12.91;100.00;97372.91;4961663;28;20242;-66
2022/10/26 08:55:54;;;;;;;7.60;6.77;;;;;;;12.91;100.00;97374.75;4960353;28;20213;-65
2022/10/26 08:58:27;;;;;;;6.77;6.17;;;;;;;12.99;100.00;97359.44;4959951;28;20785;-63
2022/10/26 09:00:55;;;;;;;6.93;6.33;;;;;;;12.99;100.00;97371.94;4961027;28;20211;-64
2022/10/26 09:03:25;;;;;;;7.17;6.43;;;;;;;12.82;100.00;97380.19;4960419;28;20201;-63
2022/10/26 09:06:05;;;;;;;7.23;6.37;;;;;;;12.64;100.00;97383.34;4962328;28;20205;-65
2022/10/26 09:08:41;;;;;;;6.63;6.13;;;;;;;12.43;100.00;97387.69;4961835;28;20610;-64
2022/10/26 09:11:17;;;;;;;7.30;6.60;;;;;;;12.33;100.00;97391.66;4957795;28;20883;-65
2022/10/26 09:13:53;;;;;;;6.97;6.27;;;;;;;12.25;100.00;97380.16;4959752;28;20342;-63
2022/10/26 09:16:30;;;;;;;8.67;7.97;;;;;;;12.24;100.00;97386.47;4961680;28;20295;-65
2022/10/26 09:19:14;;;;;;;8.07;7.27;;;;;;;12.13;100.00;97382.47;4962553;28;20217;-66
2022/10/26 09:21:47;;;;;;;7.30;6.70;;;;;;;12.23;100.00;97378.69;4961122;28;20228;-65
2022/10/26 09:24:20;;;;;;;9.70;7.57;;;;;;;12.40;100.00;97382.75;4960125;28;20511;-65
2022/10/26 09:26:54;;;;;;;8.40;7.27;;;;;;;12.26;100.00;97387.09;4961649;28;20915;-65
2022/10/26 09:29:26;;;;;;;7.30;6.70;;;;;;;12.09;100.00;97389.19;4959040;28;20284;-65
2022/10/26 09:31:56;;;;;;;6.60;6.00;;;;;;;12.14;100.00;97378.81;4961898;28;20204;-65
2022/10/26 09:34:31;;;;;;;12.73;11.43;;;;;;;12.09;100.00;97378.56;4960168;28;20234;-63
2022/10/26 09:36:59;;;;;;;7.60;7.03;;;;;;;12.22;100.00;97369.06;4962043;28;20235;-62
2022/10/26 09:39:36;;;;;;;7.50;6.63;;;;;;;12.37;100.00;97387.59;4962928;28;20220;-64
2022/10/26 09:42:12;;;;;;;6.77;6.23;;;;;;;12.87;100.00;97372.47;4961449;28;20366;-63
2022/10/26 09:44:45;;;;;;;6.73;6.13;;;;;;;12.87;100.00;97382.28;4960631;28;20218;-64
2022/10/26 09:47:17;;;;;;;7.73;6.57;;;;;;;12.91;100.00;97385.41;4960936;28;20233;-62
2022/10/26 09:49:54;;;;;;;8.53;6.50;;;;;;;13.01;100.00;97384.00;4957705;28;20537;-64
2022/10/26 09:52:23;;;;;;;7.43;6.70;;;;;;;13.31;100.00;97391.78;4961078;28;20209;-61
2022/10/26 09:54:51;;;;;;;6.60;6.10;;;;;;;13.42;100.00;97395.75;4961099;28;20213;-64
2022/10/26 09:57:20;;;;;;;6.37;5.87;;;;;;;13.41;100.00;97390.59;4963417;28;20748;-62
2022/10/26 09:59:50;;;;;;;6.43;5.83;;;;;;;13.56;100.00;97399.31;4962033;28;20262;-64
2022/10/26 10:02:35;;;;;;;6.30;5.80;;;;;;;13.44;100.00;97400.88;4961801;28;20885;-63
2022/10/26 10:05:26;;;;;;;6.97;6.20;;;;;;;13.44;100.00;97398.19;4989289;28;21048;-64
2022/10/26 10:08:17;;;;;;;6.27;5.77;;;;;;;13.46;100.00;97393.53;4961082;28;21398;-65
2022/10/26 10:10:57;;;;;;;6.27;5.70;;;;;;;13.59;100.00;97398.91;4961762;28;21676;-63
2022/10/26 10:13:27;;;;;;;6.47;5.13;;;;;;;13.73;100.00;97396.28;4961337;28;20201;-63
2022/10/26 10:16:03;;;;;;;11.07;10.00;;;;;;;13.39;100.00;97411.25;4961906;28;20216;-64
2022/10/26 10:18:32;;;;;;;6.90;6.30;;;;;;;13.46;100.00;97407.66;4961925;28;20240;-64
2022/10/26 10:21:04;;;;;;;5.57;4.90;;;;;;;13.50;100.00;97402.75;4962011;28;20213;-65
2022/10/26 10:23:34;;;;;;;5.23;4.83;;;;;;;13.39;100.00;97395.28;4960824;28;20229;-64
2022/10/26 10:26:05;;;;;;;6.23;5.70;;;;;;;13.44;100.00;97406.19;4959747;28;20208;-64
2022/10/26 10:28:34;;;;;;;5.57;4.93;;;;;;;13.37;100.00;97407.97;4959604;28;20229;-62
2022/10/26 10:31:04;;;;;;;6.20;5.70;;;;;;;13.66;100.00;97404.28;4961239;28;22394;-63
2022/10/26 10:33:38;;;;;;;6.40;5.80;;;;;;;13.73;100.00;97406.94;4961918;28;20871;-63
2022/10/26 10:36:11;;;;;;;7.47;5.70;;;;;;;13.73;100.00;97399.78;4960601;28;20770;-64
2022/10/26 10:38:42;;;;;;;5.80;5.30;;;;;;;13.87;100.00;97403.34;4960446;28;20205;-63
2022/10/26 10:41:22;;;;;;;6.00;4.97;;;;;;;13.86;100.00;97407.00;4958355;28;20215;-64
2022/10/26 10:43:52;;;;;;;5.90;5.40;;;;;;;13.94;100.00;97400.66;4957568;28;20228;-64
2022/10/26 10:46:23;;;;;;;6.00;5.40;;;;;;;13.98;100.00;97401.09;4959970;28;20669;-66
2022/10/26 10:49:01;;;;;;;6.20;5.60;;;;;;;13.69;100.00;97400.38;4959329;28;21280;-63
2022/10/26 10:51:36;;;;;;;5.83;5.30;;;;;;;13.64;100.00;97408.13;4961284;28;20211;-64
2022/10/26 10:54:06;;;;;;;5.90;5.40;;;;;;;13.73;100.00;97393.63;4959858;28;20204;-66
2022/10/26 10:56:37;;;;;;;4.87;4.57;;;;;;;14.02;100.00;97384.53;4958002;28;20270;-64
2022/10/26 10:59:38;;;;;;;5.60;5.10;;;;;;;13.70;100.00;97391.38;4959394;28;20217;-64
2022/10/26 11:02:42;;;;;;;6.50;5.80;;;;;;;13.91;100.00;97397.59;4959228;28;20231;-65
2022/10/26 11:05:21;;;;;;;6.47;5.50;;;;;;;14.08;100.00;97396.19;4984079;28;20500;-63
2022/10/26 11:08:01;;;;;;;6.10;5.47;;;;;;;14.12;100.00;97400.09;4960458;28;20675;-64
2022/10/26 11:10:33;;;;;;;6.40;5.80;;;;;;;14.37;100.00;97402.22;4959026;28;20266;-62
2022/10/26 11:13:03;;;;;;;7.73;5.43;;;;;;;14.14;100.00;97400.72;4959433;28;20213;-64
2022/10/26 11:15:33;;;;;;;7.33;5.87;;;;;;;14.16;100.00;97409.34;4959316;28;20280;-64
2022/10/26 11:18:06;;;;;;;5.83;5.43;;;;;;;14.06;100.00;97405.44;4959556;28;20718;-65
2022/10/26 11:20:38;;;;;;;5.90;5.40;;;;;;;14.10;100.00;97404.00;4962163;28;20894;-63
2022/10/26 11:23:13;;;;;;;7.33;5.53;;;;;;;14.19;100.00;97408.94;4961722;28;20591;-64
2022/10/26 11:25:46;;;;;;;5.13;4.63;;;;;;;14.13;100.00;97411.59;4961990;28;20216;-65
2022/10/26 11:28:17;;;;;;;5.90;5.10;;;;;;;14.13;100.00;97414.25;4961327;28;20224;-63
2022/10/26 11:30:47;;;;;;;5.60;5.10;;;;;;;14.07;100.00;97415.06;4960487;28;20220;-64
2022/10/26 11:33:17;;;;;;;8.63;7.77;;;;;;;14.14;100.00;97419.38;4962722;28;20240;-65
2022/10/26 11:35:50;;;;;;;21.87;19.63;;;;;;;14.36;100.00;97416.56;4961177;28;20227;-65
2022/10/26 11:38:23;;;;;;;5.60;5.10;;;;;;;14.34;100.00;97415.94;4963025;28;20228;-65
2022/10/26 11:41:17;;;;;;;5.60;5.10;;;;;;;14.52;100.00;97419.84;4963220;28;20247;-65
2022/10/26 11:43:47;;;;;;;5.03;4.53;;;;;;;14.42;100.00;97422.94;4961537;28;20638;-67
2022/10/26 11:46:18;;;;;;;7.10;4.77;;;;;;;14.09;100.00;97415.69;4962902;28;20205;-64
2022/10/26 11:48:51;;;;;;;6.10;4.60;;;;;;;14.41;100.00;97426.63;4962787;28;20918;-66